Home   Weather   Slovakia   Prešov   Past weeks
Flag for Slovakia

Past Weather in Prešov, Slovakia — Yesterday and Last 2 Weeks

Currently: 81 °F. Passing clouds. (Weather station: Kosice - Barca, Slovakia). See more current weather

Past Weather in Prešov — Graph

°F

Prešov Temperature Yesterday

Maximum temperature yesterday: 84 °F (at 2:00 pm)
Minimum temperature yesterday: 68 °F (at 5:00 am)
Average temperature yesterday: 77 °F

High & Low Weather Summary for the Past Weeks

 TemperatureHumidityPressure
High93 °F (Jul 13, 1:30 pm)94% (Jul 6, 5:00 am)30.15 "Hg (Jul 6, 5:00 am)
Low55 °F (Jul 6, 5:00 am)31% (Jul 19, 4:00 pm)29.80 "Hg (Jul 13, 1:00 am)
Average78 °F64%29.98 "Hg
* Reported Jul 5 9:00 am — Jul 20 9:30 am, Prešov. Weather by CustomWeather, © 2024

Note: Actual official high and low records may vary slightly from our data, if they occured in-between our weather recording intervals... More about our weather records

Prešov Weather History for the Previous 24 Hours

Scroll right to see more
 ConditionsComfort  
Time TempWeatherWind HumidityBarometerVisibility
9:30 am
Sat, Jul 20
77 °FPassing clouds.13 mph51%29.89 "HgN/A
9:00 am77 °FSunny.14 mph51%29.89 "Hg10 mi
8:30 am75 °FSunny.16 mph50%29.89 "Hg10 mi
7:30 am73 °FSunny.14 mph57%29.92 "Hg10 mi
7:00 am72 °FSunny.8 mph61%29.92 "Hg10 mi
6:30 am72 °FSunny.9 mph61%29.92 "Hg10 mi
6:00 am70 °FSunny.5 mph60%29.92 "Hg10 mi
5:30 am66 °FSunny.8 mph68%29.95 "Hg10 mi
5:00 am68 °FSunny.12 mph64%29.95 "Hg10 mi
4:30 am68 °FClear.10 mph64%29.95 "Hg10 mi
4:00 am68 °FClear.9 mph64%29.95 "Hg10 mi
3:30 am68 °FClear.9 mph64%29.95 "Hg10 mi
3:00 am70 °FClear.10 mph60%29.98 "Hg10 mi
2:30 am70 °FClear.8 mph60%29.98 "Hg10 mi
2:00 am70 °FClear.8 mph64%29.98 "Hg10 mi
1:30 am70 °FClear.13 mph64%29.98 "Hg10 mi
1:00 am70 °FClear.12 mph64%30.01 "Hg10 mi
12:30 am70 °FClear.12 mph64%30.01 "Hg10 mi
12:00 am72 °FClear.7 mph61%30.01 "Hg10 mi
11:30 pm
Fri, Jul 19
72 °FClear.8 mph61%30.01 "Hg10 mi
11:00 pm72 °FClear.9 mph61%30.01 "Hg10 mi
10:30 pm73 °FClear.8 mph57%30.01 "Hg10 mi
10:00 pm73 °FClear.7 mph57%30.01 "Hg10 mi
9:00 pm75 °FClear.6 mph50%30.01 "Hg10 mi
8:30 pm77 °FClear.8 mph47%30.01 "Hg10 mi
8:00 pm77 °FSunny.9 mph47%30.01 "Hg10 mi
7:30 pm79 °FSunny.9 mph42%30.01 "Hg10 mi
7:00 pm81 °FSunny.12 mph39%30.01 "Hg10 mi
6:30 pm82 °FSunny.12 mph37%30.01 "Hg10 mi
6:00 pm82 °FSunny.13 mph40%30.01 "Hg10 mi
5:30 pm82 °FSunny.14 mph40%30.01 "Hg10 mi
5:00 pm84 °FSunny.13 mph35%30.04 "Hg10 mi
4:00 pm84 °FPassing clouds.15 mph31%30.04 "HgN/A
3:30 pm84 °FPassing clouds.15 mph35%30.07 "HgN/A
3:00 pm84 °FPassing clouds.17 mph33%30.07 "HgN/A
2:30 pm84 °FPassing clouds.16 mph35%30.07 "HgN/A
2:00 pm84 °FSunny.16 mph33%30.07 "Hg10 mi
1:30 pm82 °FSunny.16 mph37%30.09 "Hg10 mi
1:00 pm82 °FPassing clouds.10 mph42%30.09 "HgN/A
12:30 pm82 °FSunny.14 mph40%30.09 "Hg10 mi
12:00 pm81 °FPassing clouds.15 mph37%30.09 "HgN/A
11:30 am82 °FPassing clouds.15 mph37%30.09 "HgN/A
11:00 am82 °FSunny.16 mph35%30.09 "Hg10 mi
Weather by CustomWeather, © 2024

See weather overview